Darstellungsparameter: Aktuell verwendete Einstellungen:
Skalierung der Graphiken ... ?
xyx+y,   Skalierungsfaktor:      Skalierung: Modus: x, Faktor: 1
Darstellungszeitraum ... ?
Vom - - bis: - -   Zeitraum: 07.11.2009 - 13.11.2009
Min/Max/Avg-Anzeige ... ?
Zeige MMA aktuell
Zeige MMA Monat
Zeige MMA alles
Zeige --A aktuell
Zeige --A Monat
Zeige --A alles
Keine MMA-Anzeige
MMA:
Average (ber die Originaldaten)
MMA-Basis: 07.11.2009 - 13.11.2009
Quicknavigation für Darstellung... ?
Tage:      1T, 2T, 3T, 5T -1T -2T -3T -5T +1T +2T +3T +5T
Wochen: 1W, 2W, 3W -1W -2W -3W +1W +2W +3W
Monate: 1M, 3M, 6M -1M -3M -6M +1M +3M +6M
Jahre:    1J, 3J, 5J, 10J -1J -3J -5J -10J +1J +3J +5J +10J
Nutze für die Darstellung ... ?
Originaldaten oder Mittelwerte auf ...
Stundenbasis Tagesbasis Wochenbasis
Monatsbasis Jahresbasis      Datenbasis: Original-Daten
Darstellen als:
Statistik (Auto) Statistik J:M      Darstellung:
Zur Graphik,    zurück zur Übersicht aller Sensoren.
 
Tabellarische Datenbersicht: ?
 
Sensor: Nr:Datum:Temp:Abs-Feuchte:Windchill:Wind:
Aussen-T/F 1 07-11-2009 00:01:03 7 C 5.81 g/m*3 7 C 0 km/h
2 07-11-2009 00:13:03 6.9 C 5.93 g/m*3 6.9 C 0 km/h
3 07-11-2009 00:25:03 7.1 C 5.93 g/m*3 7.1 C 0 km/h
4 07-11-2009 00:37:03 7.3 C 5.93 g/m*3 7.3 C 0 km/h
5 07-11-2009 00:49:03 7.3 C 5.85 g/m*3 7.3 C 0 km/h
6 07-11-2009 01:01:03 7.3 C 5.85 g/m*3 7.3 C 0 km/h
7 07-11-2009 01:13:04 7.3 C 5.85 g/m*3 7.3 C 0 km/h
8 07-11-2009 01:25:04 7.4 C 5.81 g/m*3 7.4 C 0 km/h
9 07-11-2009 01:37:04 7.7 C 5.84 g/m*3 7.7 C 0 km/h
10 07-11-2009 01:49:04 7.6 C 5.72 g/m*3 7.6 C 0 km/h
11 07-11-2009 02:01:04 7.7 C 5.68 g/m*3 7.7 C 0 km/h
12 07-11-2009 02:13:04 7.7 C 5.68 g/m*3 7.7 C 0 km/h
13 07-11-2009 02:25:04 7.7 C 5.68 g/m*3 7.7 C 0 km/h
14 07-11-2009 02:37:04 7.8 C 5.63 g/m*3 7.8 C 0 km/h
15 07-11-2009 02:49:04 7.8 C 5.63 g/m*3 7.8 C 0 km/h
16 07-11-2009 03:01:04 7.8 C 5.63 g/m*3 7.8 C 0 km/h
17 07-11-2009 03:13:04 7.8 C 5.63 g/m*3 7.8 C 0 km/h
18 07-11-2009 03:25:04 7.8 C 5.55 g/m*3 7.8 C 0 km/h
19 07-11-2009 03:37:04 7.8 C 5.47 g/m*3 7.8 C 0 km/h
20 07-11-2009 03:49:04 7.8 C 5.55 g/m*3 7.8 C 0 km/h
21 07-11-2009 04:01:04 7.8 C 5.55 g/m*3 7.8 C 0 km/h
22 07-11-2009 04:13:04 7.8 C 5.47 g/m*3 7.8 C 0 km/h
23 07-11-2009 04:25:04 7.8 C 5.47 g/m*3 7.8 C 0 km/h
24 07-11-2009 04:37:04 7.8 C 5.47 g/m*3 7.8 C 0 km/h
25 07-11-2009 04:49:04 7.7 C 5.43 g/m*3 7.7 C 0 km/h
Sensor: Nr:Datum:Temp:Abs-Feuchte:Windchill:Wind:
Aussen-T/F 26 07-11-2009 05:01:04 7.7 C 5.43 g/m*3 7.7 C 0 km/h
27 07-11-2009 05:13:05 7.8 C 5.47 g/m*3 7.8 C 0 km/h
28 07-11-2009 05:25:05 7.7 C 5.43 g/m*3 7.7 C 0 km/h
29 07-11-2009 05:37:05 7.7 C 5.35 g/m*3 7.7 C 0 km/h
30 07-11-2009 05:49:05 7.8 C 5.39 g/m*3 7.8 C 0 km/h
31 07-11-2009 06:01:05 7.7 C 5.35 g/m*3 7.7 C 0 km/h
32 07-11-2009 06:13:05 7.8 C 5.39 g/m*3 7.8 C 0 km/h
33 07-11-2009 06:25:05 7.9 C 5.34 g/m*3 7.9 C 0 km/h
34 07-11-2009 06:37:05 7.9 C 5.26 g/m*3 7.9 C 0 km/h
35 07-11-2009 06:49:05 7.9 C 5.26 g/m*3 7.9 C 0 km/h
36 07-11-2009 07:01:05 7.1 C 5.54 g/m*3 7.1 C 0 km/h
37 07-11-2009 07:13:05 6.6 C 5.81 g/m*3 6.6 C 0 km/h
38 07-11-2009 07:25:05 6.4 C 5.89 g/m*3 6.4 C 0 km/h
39 07-11-2009 07:37:05 6.3 C 6 g/m*3 6.3 C 0 km/h
40 07-11-2009 07:49:05 6.3 C 6.07 g/m*3 6.3 C 0 km/h
41 07-11-2009 08:01:03 6.3 C 6.07 g/m*3 6.3 C 0 km/h
42 07-11-2009 08:13:03 6.8 C 6.35 g/m*3 6.8 C 0 km/h
43 07-11-2009 08:25:03 6.8 C 6.35 g/m*3 6.8 C 0 km/h
44 07-11-2009 08:37:03 6.9 C 6.24 g/m*3 6.9 C 0 km/h
45 07-11-2009 08:49:02 6.9 C 6.24 g/m*3 6.9 C 0 km/h
46 07-11-2009 09:01:01 7.1 C 6.08 g/m*3 7.1 C 0 km/h
47 07-11-2009 09:13:01 7.5 C 6 g/m*3 7.5 C 0 km/h
48 07-11-2009 09:25:02 7.8 C 5.88 g/m*3 7.8 C 0 km/h
49 07-11-2009 09:37:01 8 C 5.7 g/m*3 8 C 0 km/h
50 07-11-2009 09:49:02 8 C 5.79 g/m*3 8 C 0 km/h
Sensor: Nr:Datum:Temp:Abs-Feuchte:Windchill:Wind:
Aussen-T/F 51 07-11-2009 10:01:01 7.8 C 5.71 g/m*3 7.8 C 0 km/h
52 07-11-2009 10:13:01 7.5 C 5.76 g/m*3 7.5 C 0 km/h
53 07-11-2009 10:25:01 7.3 C 5.93 g/m*3 7.3 C 0 km/h
54 07-11-2009 10:37:01 7.3 C 5.93 g/m*3 7.3 C 0 km/h
55 07-11-2009 10:49:02 7.5 C 5.92 g/m*3 7.5 C 0 km/h
56 07-11-2009 11:01:01 7.8 C 5.96 g/m*3 7.8 C 0 km/h
57 07-11-2009 11:13:01 7.8 C 5.96 g/m*3 7.8 C 0 km/h
58 07-11-2009 11:25:02 7.9 C 5.91 g/m*3 7.9 C 0 km/h
59 07-11-2009 11:37:02 7.9 C 5.91 g/m*3 7.9 C 0 km/h
60 07-11-2009 11:49:01 8.1 C 5.91 g/m*3 8.1 C 0 km/h
61 07-11-2009 12:01:02 8.3 C 5.82 g/m*3 8.3 C 0 km/h
62 07-11-2009 12:13:02 8.3 C 5.9 g/m*3 8.3 C 0 km/h
63 07-11-2009 12:25:01 8.3 C 5.9 g/m*3 8.3 C 0 km/h
64 07-11-2009 12:37:02 8.3 C 5.98 g/m*3 8.3 C 0 km/h
65 07-11-2009 12:49:02 8.4 C 6.02 g/m*3 8.4 C 0 km/h
66 07-11-2009 13:01:02 8.5 C 5.98 g/m*3 8.5 C 0 km/h
67 07-11-2009 13:13:02 8.5 C 5.98 g/m*3 8.5 C 0 km/h
68 07-11-2009 13:25:01 8.3 C 6.07 g/m*3 8.3 C 0 km/h
69 07-11-2009 13:37:02 8 C 6.2 g/m*3 8 C 0 km/h
70 07-11-2009 13:49:02 8.5 C 6.4 g/m*3 8.5 C 0 km/h
71 07-11-2009 14:01:02 9.2 C 6.52 g/m*3 9.2 C 0 km/h
72 07-11-2009 14:13:02 9.7 C 6.36 g/m*3 9.7 C 0 km/h
73 07-11-2009 14:25:02 10 C 6.2 g/m*3 10 C 0 km/h
74 07-11-2009 14:37:02 10.5 C 6.21 g/m*3 10.5 C 0 km/h
75 07-11-2009 14:49:02 10.6 C 5.95 g/m*3 10.6 C 0 km/h
Sensor: Nr:Datum:Temp:Abs-Feuchte:Windchill:Wind:
Aussen-T/F 76 07-11-2009 15:01:02 10.8 C 6.03 g/m*3 10.8 C 0 km/h
77 07-11-2009 15:13:03 11.2 C 5.98 g/m*3 11.2 C 0 km/h
78 07-11-2009 15:25:02 10.8 C 5.93 g/m*3 10.8 C 0 km/h
79 07-11-2009 15:37:02 10.7 C 5.99 g/m*3 10.7 C 0 km/h
80 07-11-2009 15:49:02 10.3 C 5.94 g/m*3 10.3 C 0 km/h
81 07-11-2009 16:01:02 10.1 C 5.86 g/m*3 10.1 C 0 km/h
82 07-11-2009 16:13:02 9.9 C 5.98 g/m*3 9.9 C 0 km/h
83 07-11-2009 16:25:02 9.9 C 5.98 g/m*3 9.9 C 0 km/h
84 07-11-2009 16:37:02 9.8 C 5.94 g/m*3 9.8 C 0 km/h
85 07-11-2009 16:49:02 9.4 C 5.88 g/m*3 9.4 C 0 km/h
86 07-11-2009 17:01:02 9 C 5.82 g/m*3 9 C 0 km/h
87 07-11-2009 17:13:02 8.5 C 5.81 g/m*3 8.5 C 0 km/h
88 07-11-2009 17:25:03 8.1 C 5.74 g/m*3 8.1 C 0 km/h
89 07-11-2009 17:37:02 7.9 C 5.91 g/m*3 7.9 C 0 km/h
90 07-11-2009 17:49:03 8 C 6.04 g/m*3 8 C 0 km/h
91 07-11-2009 18:01:02 8.2 C 6.11 g/m*3 8.2 C 0 km/h
92 07-11-2009 18:13:02 8.5 C 6.15 g/m*3 8.5 C 0 km/h
93 07-11-2009 18:25:02 8.7 C 6.14 g/m*3 8.7 C 0 km/h
94 07-11-2009 18:37:02 8.7 C 6.14 g/m*3 8.7 C 0 km/h
95 07-11-2009 18:49:02 8.7 C 6.14 g/m*3 8.7 C 0 km/h
96 07-11-2009 19:01:02 8.6 C 6.1 g/m*3 8.6 C 0 km/h
97 07-11-2009 19:13:02 8.6 C 6.19 g/m*3 8.6 C 0 km/h
98 07-11-2009 19:25:02 8.6 C 6.19 g/m*3 8.6 C 0 km/h
99 07-11-2009 19:37:02 8.5 C 6.15 g/m*3 8.5 C 0 km/h
100 07-11-2009 19:49:02 8.5 C 6.15 g/m*3 8.5 C 0 km/h
Sensor: Nr:Datum:Temp:Abs-Feuchte:Windchill:Wind:
Aussen-T/F 101 07-11-2009 20:01:01 8.5 C 6.15 g/m*3 8.5 C 0 km/h
102 07-11-2009 20:13:01 8.4 C 6.11 g/m*3 8.4 C 0 km/h
103 07-11-2009 20:25:02 8.3 C 6.07 g/m*3 8.3 C 0 km/h
104 07-11-2009 20:37:02 8.3 C 6.15 g/m*3 8.3 C 0 km/h
105 07-11-2009 20:49:01 8.2 C 6.11 g/m*3 8.2 C 0 km/h
106 07-11-2009 21:01:01 8.3 C 6.24 g/m*3 8.3 C 0 km/h
107 07-11-2009 21:13:01 8.3 C 6.24 g/m*3 8.3 C 0 km/h
108 07-11-2009 21:25:01 8.2 C 6.2 g/m*3 8.2 C 0 km/h
109 07-11-2009 21:37:02 8.1 C 6.24 g/m*3 8.1 C 0 km/h
110 07-11-2009 21:49:02 8 C 6.28 g/m*3 8 C 0 km/h
111 07-11-2009 22:01:02 8 C 6.28 g/m*3 8 C 0 km/h
112 07-11-2009 22:13:02 7.9 C 6.32 g/m*3 7.9 C 0 km/h
113 07-11-2009 22:25:02 7.8 C 6.37 g/m*3 7.8 C 0 km/h
114 07-11-2009 22:37:01 7.9 C 6.41 g/m*3 7.9 C 0 km/h
115 07-11-2009 22:49:02 7.9 C 6.41 g/m*3 7.9 C 0 km/h
116 07-11-2009 23:01:01 7.9 C 6.41 g/m*3 7.9 C 0 km/h
117 07-11-2009 23:13:01 7.9 C 6.41 g/m*3 7.9 C 0 km/h
118 07-11-2009 23:25:02 7.8 C 6.37 g/m*3 7.8 C 0 km/h
119 07-11-2009 23:37:02 7.9 C 6.49 g/m*3 7.9 C 0 km/h
120 07-11-2009 23:49:02 7.8 C 6.45 g/m*3 7.8 C 0 km/h
121 08-11-2009 00:02:02 7.6 C 6.44 g/m*3 7.6 C 0 km/h
122 08-11-2009 00:14:02 7.3 C 6.48 g/m*3 7.3 C 0 km/h
123 08-11-2009 00:26:02 7.1 C 6.47 g/m*3 7.1 C 0 km/h
124 08-11-2009 00:38:02 7.1 C 6.55 g/m*3 7.1 C 0 km/h
125 08-11-2009 00:50:02 7.1 C 6.55 g/m*3 7.1 C 0 km/h
Sensor: Nr:Datum:Temp:Abs-Feuchte:Windchill:Wind:
Aussen-T/F 126 08-11-2009 01:02:03 7.2 C 6.67 g/m*3 7.2 C 0 km/h
127 08-11-2009 01:14:03 7.2 C 6.67 g/m*3 7.2 C 0 km/h
128 08-11-2009 01:26:03 7.2 C 6.67 g/m*3 7.2 C 0 km/h
129 08-11-2009 01:38:03 7.3 C 6.72 g/m*3 7.3 C 0 km/h
130 08-11-2009 01:50:03 7.3 C 6.64 g/m*3 7.3 C 0 km/h
131 08-11-2009 02:02:03 7.3 C 6.64 g/m*3 7.3 C 0 km/h
132 08-11-2009 02:14:03 7.3 C 6.64 g/m*3 7.3 C 0 km/h
133 08-11-2009 02:26:03 7.4 C 6.68 g/m*3 7.4 C 0 km/h
134 08-11-2009 02:38:03 7.3 C 6.56 g/m*3 7.3 C 0 km/h
135 08-11-2009 02:50:03 7.2 C 6.52 g/m*3 7.2 C 0 km/h
136 08-11-2009 03:02:03 7.1 C 6.55 g/m*3 7.1 C 0 km/h
137 08-11-2009 03:14:03 7 C 6.51 g/m*3 7 C 0 km/h
138 08-11-2009 03:26:03 7 C 6.59 g/m*3 7 C 0 km/h
139 08-11-2009 03:38:03 7 C 6.59 g/m*3 7 C 0 km/h
140 08-11-2009 03:50:03 7 C 6.59 g/m*3 7 C 0 km/h
141 08-11-2009 04:02:03 7.1 C 6.71 g/m*3 7.1 C 0 km/h
142 08-11-2009 04:14:03 7 C 6.66 g/m*3 7 C 0 km/h
143 08-11-2009 04:26:03 7 C 6.66 g/m*3 7 C 0 km/h
144 08-11-2009 04:38:03 7 C 6.74 g/m*3 7 C 0 km/h
145 08-11-2009 04:50:03 7 C 6.74 g/m*3 7 C 0 km/h
146 08-11-2009 05:02:04 7.1 C 6.79 g/m*3 7.1 C 0 km/h
147 08-11-2009 05:14:04 6.5 C 6.52 g/m*3 6.5 C 0 km/h
148 08-11-2009 05:26:04 6.2 C 6.4 g/m*3 6.2 C 0 km/h
149 08-11-2009 05:38:04 5.8 C 6.3 g/m*3 5.8 C 0 km/h
150 08-11-2009 05:50:04 5.4 C 6.14 g/m*3 5.4 C 0 km/h
Sensor: Nr:Datum:Temp:Abs-Feuchte:Windchill:Wind:
Aussen-T/F 151 08-11-2009 06:02:04 5.1 C 6.09 g/m*3 5.1 C 0 km/h
152 08-11-2009 06:14:04 4.9 C 6.01 g/m*3 4.9 C 0 km/h
153 08-11-2009 06:26:04 4.8 C 6.04 g/m*3 4.8 C 0 km/h
154 08-11-2009 06:38:04 5 C 6.12 g/m*3 5 C 0 km/h
155 08-11-2009 06:50:04 5.1 C 6.16 g/m*3 5.1 C 0 km/h
156 08-11-2009 07:02:04 5.1 C 6.22 g/m*3 5.1 C 0 km/h
157 08-11-2009 07:14:04 4.9 C 6.14 g/m*3 4.9 C 0 km/h
158 08-11-2009 07:26:04 4.6 C 6.02 g/m*3 4.6 C 0 km/h
159 08-11-2009 07:38:04 4.4 C 5.94 g/m*3 4.4 C 0 km/h
160 08-11-2009 07:50:04 4.3 C 5.9 g/m*3 4.3 C 0 km/h
161 08-11-2009 08:02:04 4.1 C 5.82 g/m*3 4.1 C 0 km/h
162 08-11-2009 08:14:04 4 C 5.79 g/m*3 4 C 0 km/h
163 08-11-2009 08:26:04 3.8 C 5.77 g/m*3 3.8 C 0 km/h
164 08-11-2009 08:38:04 3.8 C 5.77 g/m*3 3.8 C 0 km/h
165 08-11-2009 08:50:04 3.7 C 5.73 g/m*3 3.7 C 0 km/h
166 08-11-2009 09:02:05 3.7 C 5.8 g/m*3 3.7 C 0 km/h
167 08-11-2009 09:14:05 3.6 C 5.76 g/m*3 3.6 C 0 km/h
168 08-11-2009 09:26:05 3.7 C 5.8 g/m*3 3.7 C 0 km/h
169 08-11-2009 09:38:05 4 C 5.91 g/m*3 4 C 0 km/h
170 08-11-2009 09:50:05 4.4 C 6.14 g/m*3 4.4 C 0 km/h
171 08-11-2009 10:02:01 4.5 C 6.11 g/m*3 4.5 C 0 km/h
172 08-11-2009 10:14:01 4.5 C 6.11 g/m*3 4.5 C 0 km/h
173 08-11-2009 10:26:02 4.8 C 6.24 g/m*3 4.8 C 0 km/h
174 08-11-2009 10:38:01 5.2 C 6.33 g/m*3 5.2 C 0 km/h
175 08-11-2009 10:50:02 5.6 C 6.5 g/m*3 5.6 C 0 km/h
Sensor: Nr:Datum:Temp:Abs-Feuchte:Windchill:Wind:
Aussen-T/F 176 08-11-2009 11:02:01 6.3 C 6.66 g/m*3 6.3 C 0 km/h
177 08-11-2009 11:14:01 6.8 C 6.65 g/m*3 6.8 C 0 km/h
178 08-11-2009 11:26:02 7.1 C 6.24 g/m*3 7.1 C 0 km/h
179 08-11-2009 11:38:01 7.4 C 6.28 g/m*3 7.4 C 0 km/h
180 08-11-2009 11:50:02 7.6 C 6.12 g/m*3 7.6 C 0 km/h
181 08-11-2009 12:02:03 7.6 C 5.88 g/m*3 7.6 C 0 km/h
182 08-11-2009 12:14:03 7.8 C 5.79 g/m*3 7.8 C 0 km/h
183 08-11-2009 12:26:02 8.2 C 5.78 g/m*3 8.2 C 0 km/h
184 08-11-2009 12:38:02 8.2 C 5.69 g/m*3 8.2 C 0 km/h
185 08-11-2009 12:50:01 8.2 C 5.69 g/m*3 8.2 C 0 km/h
186 08-11-2009 13:02:02 8.2 C 5.78 g/m*3 8.2 C 0 km/h
187 08-11-2009 13:14:02 8.3 C 5.98 g/m*3 8.3 C 0 km/h
188 08-11-2009 13:26:01 8.4 C 5.94 g/m*3 8.4 C 0 km/h
189 08-11-2009 13:38:01 8 C 5.79 g/m*3 8 C 0 km/h
190 08-11-2009 13:50:02 7.9 C 5.91 g/m*3 7.9 C 0 km/h
191 08-11-2009 14:02:02 8.2 C 6.03 g/m*3 8.2 C 0 km/h
192 08-11-2009 14:14:03 8.4 C 6.02 g/m*3 8.4 C 0 km/h
193 08-11-2009 14:26:01 8.4 C 6.02 g/m*3 8.4 C 0 km/h
194 08-11-2009 14:38:01 8.3 C 5.98 g/m*3 8.3 C 0 km/h
195 08-11-2009 14:50:01 8.3 C 5.98 g/m*3 8.3 C 0 km/h
196 08-11-2009 15:02:01 8.5 C 6.06 g/m*3 8.5 C 0 km/h
197 08-11-2009 15:14:01 8.9 C 6.22 g/m*3 8.9 C 0 km/h
198 08-11-2009 15:26:02 9 C 6.08 g/m*3 9 C 0 km/h
199 08-11-2009 15:38:01 8.9 C 6.04 g/m*3 8.9 C 0 km/h
200 08-11-2009 15:50:02 8.9 C 6.22 g/m*3 8.9 C 0 km/h
Sensor: Nr:Datum:Temp:Abs-Feuchte:Windchill:Wind:
Aussen-T/F 201 08-11-2009 16:02:02 8.7 C 6.14 g/m*3 8.7 C 0 km/h
202 08-11-2009 16:14:02 8.6 C 6.1 g/m*3 8.6 C 0 km/h
203 08-11-2009 16:26:03 8.5 C 6.15 g/m*3 8.5 C 0 km/h
204 08-11-2009 16:38:02 8.4 C 6.19 g/m*3 8.4 C 0 km/h
205 08-11-2009 16:50:03 8.2 C 6.2 g/m*3 8.2 C 0 km/h
206 08-11-2009 17:02:02 8.1 C 6.24 g/m*3 8.1 C 0 km/h
207 08-11-2009 17:14:02 8 C 6.2 g/m*3 8 C 0 km/h
208 08-11-2009 17:26:03 8 C 6.2 g/m*3 8 C 0 km/h
209 08-11-2009 17:38:02 7.7 C 6.24 g/m*3 7.7 C 0 km/h
210 08-11-2009 17:50:02 7.5 C 6.24 g/m*3 7.5 C 0 km/h
211 08-11-2009 18:02:02 7.4 C 6.28 g/m*3 7.4 C 0 km/h
212 08-11-2009 18:14:02 7.4 C 6.36 g/m*3 7.4 C 0 km/h
213 08-11-2009 18:26:02 7.2 C 6.44 g/m*3 7.2 C 0 km/h
214 08-11-2009 18:38:03 7.1 C 6.47 g/m*3 7.1 C 0 km/h
215 08-11-2009 18:50:02 7.2 C 6.59 g/m*3 7.2 C 0 km/h
216 08-11-2009 19:02:01 7.3 C 6.64 g/m*3 7.3 C 0 km/h
217 08-11-2009 19:14:01 7.4 C 6.68 g/m*3 7.4 C 0 km/h
218 08-11-2009 19:26:02 7.4 C 6.68 g/m*3 7.4 C 0 km/h
219 08-11-2009 19:38:02 7.4 C 6.68 g/m*3 7.4 C 0 km/h
220 08-11-2009 19:50:02 7.4 C 6.68 g/m*3 7.4 C 0 km/h
221 08-11-2009 20:02:03 7.4 C 6.68 g/m*3 7.4 C 0 km/h
222 08-11-2009 20:14:03 7.5 C 6.72 g/m*3 7.5 C 0 km/h
223 08-11-2009 20:26:02 7.5 C 6.72 g/m*3 7.5 C 0 km/h
224 08-11-2009 20:38:02 7.5 C 6.64 g/m*3 7.5 C 0 km/h
225 08-11-2009 20:50:01 7.5 C 6.64 g/m*3 7.5 C 0 km/h
Sensor: Nr:Datum:Temp:Abs-Feuchte:Windchill:Wind:
Aussen-T/F 226 08-11-2009 21:02:02 7.6 C 6.69 g/m*3 7.6 C 0 km/h
227 08-11-2009 21:14:02 7.5 C 6.56 g/m*3 7.5 C 0 km/h
228 08-11-2009 21:26:01 7.4 C 6.52 g/m*3 7.4 C 0 km/h
229 08-11-2009 21:38:01 7.4 C 6.6 g/m*3 7.4 C 0 km/h
230 08-11-2009 21:50:01 7.4 C 6.6 g/m*3 7.4 C 0 km/h
231 08-11-2009 22:03:02 7.6 C 6.69 g/m*3 7.6 C 0 km/h
232 08-11-2009 22:15:02 7.5 C 6.56 g/m*3 7.5 C 0 km/h
233 08-11-2009 22:27:02 7.5 C 6.56 g/m*3 7.5 C 0 km/h
234 08-11-2009 22:39:02 7.6 C 6.61 g/m*3 7.6 C 0 km/h
235 08-11-2009 22:51:02 7.5 C 6.56 g/m*3 7.5 C 0 km/h
236 08-11-2009 23:03:02 7.5 C 6.56 g/m*3 7.5 C 0 km/h
237 08-11-2009 23:15:02 7.5 C 6.48 g/m*3 7.5 C 0 km/h
238 08-11-2009 23:27:02 7.5 C 6.48 g/m*3 7.5 C 0 km/h
239 08-11-2009 23:39:02 7.4 C 6.44 g/m*3 7.4 C 0 km/h
240 08-11-2009 23:51:02 7.3 C 6.4 g/m*3 7.3 C 0 km/h
241 09-11-2009 00:03:02 7.1 C 6.32 g/m*3 7.1 C 0 km/h
242 09-11-2009 00:15:02 7 C 6.35 g/m*3 7 C 0 km/h
243 09-11-2009 00:27:02 7 C 6.35 g/m*3 7 C 0 km/h
244 09-11-2009 00:39:02 6.9 C 6.39 g/m*3 6.9 C 0 km/h
245 09-11-2009 00:51:02 6.7 C 6.31 g/m*3 6.7 C 0 km/h
246 09-11-2009 01:03:02 6.8 C 6.35 g/m*3 6.8 C 0 km/h
247 09-11-2009 01:15:02 6.8 C 6.42 g/m*3 6.8 C 0 km/h
248 09-11-2009 01:27:02 6.8 C 6.35 g/m*3 6.8 C 0 km/h
249 09-11-2009 01:39:02 6.8 C 6.35 g/m*3 6.8 C 0 km/h
250 09-11-2009 01:51:02 6.8 C 6.35 g/m*3 6.8 C 0 km/h
Sensor: Nr:Datum:Temp:Abs-Feuchte:Windchill:Wind:
Aussen-T/F 251 09-11-2009 02:03:02 6.8 C 6.27 g/m*3 6.8 C 0 km/h
252 09-11-2009 02:15:03 6.9 C 6.31 g/m*3 6.9 C 0 km/h
253 09-11-2009 02:27:03 6.9 C 6.24 g/m*3 6.9 C 0 km/h
254 09-11-2009 02:39:03 7 C 6.2 g/m*3 7 C 0 km/h
255 09-11-2009 02:51:03 7 C 6.12 g/m*3 7 C 0 km/h
256 09-11-2009 03:03:03 7 C 6.12 g/m*3 7 C 0 km/h
257 09-11-2009 03:15:03 7.1 C 6.08 g/m*3 7.1 C 0 km/h
258 09-11-2009 03:27:03 7 C 6.04 g/m*3 7 C 0 km/h
259 09-11-2009 03:39:03 7 C 6.04 g/m*3 7 C 0 km/h
260 09-11-2009 03:51:03 7 C 6.04 g/m*3 7 C 0 km/h
261 09-11-2009 04:03:03 7 C 6.04 g/m*3 7 C 0 km/h
262 09-11-2009 04:15:03 7 C 5.97 g/m*3 7 C 0 km/h
263 09-11-2009 04:27:03 7.1 C 6.01 g/m*3 7.1 C 0 km/h
264 09-11-2009 04:39:03 7.1 C 5.93 g/m*3 7.1 C 0 km/h
265 09-11-2009 04:51:03 7.1 C 5.93 g/m*3 7.1 C 0 km/h
266 09-11-2009 05:03:03 7.2 C 5.89 g/m*3 7.2 C 0 km/h
267 09-11-2009 05:15:03 7.2 C 5.89 g/m*3 7.2 C 0 km/h
268 09-11-2009 05:27:03 7.2 C 5.89 g/m*3 7.2 C 0 km/h
269 09-11-2009 05:39:03 7.1 C 5.85 g/m*3 7.1 C 0 km/h
270 09-11-2009 05:51:03 7.1 C 5.85 g/m*3 7.1 C 0 km/h
271 09-11-2009 06:03:04 6.9 C 5.93 g/m*3 6.9 C 0 km/h
272 09-11-2009 06:15:04 7 C 5.89 g/m*3 7 C 0 km/h
273 09-11-2009 06:27:04 7.1 C 5.77 g/m*3 7.1 C 0 km/h
274 09-11-2009 06:39:04 7.1 C 5.77 g/m*3 7.1 C 0 km/h
275 09-11-2009 06:51:04 7 C 5.73 g/m*3 7 C 0 km/h
Sensor: Nr:Datum:Temp:Abs-Feuchte:Windchill:Wind:
Aussen-T/F 276 09-11-2009 07:03:02 7 C 5.73 g/m*3 7 C 0 km/h
277 09-11-2009 07:15:02 7 C 5.66 g/m*3 7 C 0 km/h
278 09-11-2009 07:27:02 7 C 5.66 g/m*3 7 C 0 km/h
279 09-11-2009 07:39:01 6.9 C 5.7 g/m*3 6.9 C 0 km/h
280 09-11-2009 07:51:02 6.9 C 5.62 g/m*3 6.9 C 0 km/h
281 09-11-2009 08:03:01 6.9 C 5.62 g/m*3 6.9 C 0 km/h
282 09-11-2009 08:15:02 6.9 C 5.62 g/m*3 6.9 C 0 km/h
283 09-11-2009 08:27:02 6.9 C 5.62 g/m*3 6.9 C 0 km/h
284 09-11-2009 08:39:01 6.9 C 5.62 g/m*3 6.9 C 0 km/h
285 09-11-2009 08:51:02 6.9 C 5.62 g/m*3 6.9 C 0 km/h
286 09-11-2009 09:03:02 6.8 C 5.58 g/m*3 6.8 C 0 km/h
287 09-11-2009 09:15:02 6.8 C 5.66 g/m*3 6.8 C 0 km/h
288 09-11-2009 09:27:02 6.9 C 5.7 g/m*3 6.9 C 0 km/h
289 09-11-2009 09:39:02 7 C 5.58 g/m*3 7 C 0 km/h
290 09-11-2009 09:51:02 7 C 5.58 g/m*3 7 C 0 km/h
291 09-11-2009 10:03:02 6.9 C 5.62 g/m*3 6.9 C 0 km/h
292 09-11-2009 10:15:01 6.9 C 5.7 g/m*3 6.9 C 0 km/h
293 09-11-2009 10:27:01 6.8 C 5.81 g/m*3 6.8 C 0 km/h
294 09-11-2009 10:39:01 6.7 C 5.85 g/m*3 6.7 C 0 km/h
295 09-11-2009 10:51:01 6.6 C 6.04 g/m*3 6.6 C 0 km/h
296 09-11-2009 11:03:02 6.4 C 6.11 g/m*3 6.4 C 0 km/h
297 09-11-2009 11:15:02 6.4 C 6.26 g/m*3 6.4 C 0 km/h
298 09-11-2009 11:27:02 6.5 C 6.37 g/m*3 6.5 C 0 km/h
299 09-11-2009 11:39:01 6.7 C 6.53 g/m*3 6.7 C 0 km/h
300 09-11-2009 11:51:01 6.3 C 6.29 g/m*3 6.3 C 0 km/h
Sensor: Nr:Datum:Temp:Abs-Feuchte:Windchill:Wind:
Aussen-T/F 301 09-11-2009 12:03:02 6.3 C 6.37 g/m*3 6.3 C 0 km/h
302 09-11-2009 12:15:02 6.3 C 6.37 g/m*3 6.3 C 0 km/h
303 09-11-2009 12:27:02 6.3 C 6.44 g/m*3 6.3 C 0 km/h
304 09-11-2009 12:39:01 6.2 C 6.4 g/m*3 6.2 C 0 km/h
305 09-11-2009 12:51:01 6.2 C 6.4 g/m*3 6.2 C 0 km/h
306 09-11-2009 13:03:01 6.2 C 6.4 g/m*3 6.2 C 0 km/h
307 09-11-2009 13:15:02 6.2 C 6.4 g/m*3 6.2 C 0 km/h
308 09-11-2009 13:27:02 6.2 C 6.4 g/m*3 6.2 C 0 km/h
309 09-11-2009 13:39:01 6.2 C 6.4 g/m*3 6.2 C 0 km/h
310 09-11-2009 13:51:03 6.2 C 6.4 g/m*3 6.2 C 0 km/h
311 09-11-2009 14:03:02 6.2 C 6.4 g/m*3 6.2 C 0 km/h
312 09-11-2009 14:15:02 6.3 C 6.44 g/m*3 6.3 C 0 km/h
313 09-11-2009 14:27:03 6.2 C 6.4 g/m*3 6.2 C 0 km/h
314 09-11-2009 14:39:02 6.2 C 6.47 g/m*3 6.2 C 0 km/h
315 09-11-2009 14:51:02 6.1 C 6.5 g/m*3 6.1 C 0 km/h
316 09-11-2009 15:03:01 6 C 6.46 g/m*3 6 C 0 km/h
317 09-11-2009 15:15:02 5.9 C 6.56 g/m*3 5.9 C 0 km/h
318 09-11-2009 15:27:02 6 C 6.6 g/m*3 6 C 0 km/h
319 09-11-2009 15:39:02 5.8 C 6.59 g/m*3 5.8 C 0 km/h
320 09-11-2009 15:51:01 5.9 C 6.71 g/m*3 5.9 C 0 km/h
321 09-11-2009 16:03:01 5.8 C 6.66 g/m*3 5.8 C 0 km/h
322 09-11-2009 16:15:01 5.7 C 6.62 g/m*3 5.7 C 0 km/h
323 09-11-2009 16:27:01 5.7 C 6.69 g/m*3 5.7 C 0 km/h
324 09-11-2009 16:39:02 5.7 C 6.69 g/m*3 5.7 C 0 km/h
325 09-11-2009 16:51:02 5.7 C 6.69 g/m*3 5.7 C 0 km/h
Sensor: Nr:Datum:Temp:Abs-Feuchte:Windchill:Wind:
Aussen-T/F 326 09-11-2009 17:03:02 5.6 C 6.72 g/m*3 5.6 C 0 km/h
327 09-11-2009 17:15:01 5.5 C 6.67 g/m*3 5.5 C 0 km/h
328 09-11-2009 17:27:01 5.4 C 6.63 g/m*3 5.4 C 0 km/h
329 09-11-2009 17:39:02 5.3 C 6.58 g/m*3 5.3 C 0 km/h
330 09-11-2009 17:51:02 5.2 C 6.54 g/m*3 5.2 C 0 km/h
331 09-11-2009 18:03:02 5.2 C 6.54 g/m*3 5.2 C 0 km/h
332 09-11-2009 18:15:02 5.1 C 6.5 g/m*3 5.1 C 0 km/h
333 09-11-2009 18:27:02 5.1 C 6.5 g/m*3 5.1 C 0 km/h
334 09-11-2009 18:39:02 5 C 6.46 g/m*3 5 C 0 km/h
335 09-11-2009 18:51:01 5 C 6.46 g/m*3 5 C 0 km/h
336 09-11-2009 19:03:01 5 C 6.46 g/m*3 5 C 0 km/h
337 09-11-2009 19:15:01 5.1 C 6.5 g/m*3 5.1 C 0 km/h
338 09-11-2009 19:27:01 5.1 C 6.5 g/m*3 5.1 C 0 km/h
339 09-11-2009 19:39:01 5.2 C 6.54 g/m*3 5.2 C 0 km/h
340 09-11-2009 19:51:01 5.2 C 6.54 g/m*3 5.2 C 0 km/h
341 09-11-2009 20:03:01 5.2 C 6.54 g/m*3 5.2 C 0 km/h
342 09-11-2009 20:15:02 5.2 C 6.54 g/m*3 5.2 C 0 km/h
343 09-11-2009 20:27:02 5.2 C 6.54 g/m*3 5.2 C 0 km/h
344 09-11-2009 20:39:01 5.2 C 6.54 g/m*3 5.2 C 0 km/h
345 09-11-2009 20:51:01 5.2 C 6.54 g/m*3 5.2 C 0 km/h
346 09-11-2009 21:03:01 5.1 C 6.5 g/m*3 5.1 C 0 km/h
347 09-11-2009 21:15:01 5.1 C 6.5 g/m*3 5.1 C 0 km/h
348 09-11-2009 21:27:01 5.1 C 6.5 g/m*3 5.1 C 0 km/h
349 09-11-2009 21:39:02 5.1 C 6.5 g/m*3 5.1 C 0 km/h
350 09-11-2009 21:51:02 5 C 6.46 g/m*3 5 C 0 km/h
Sensor: Nr:Datum:Temp:Abs-Feuchte:Windchill:Wind:
Aussen-T/F 351 09-11-2009 22:03:02 5 C 6.46 g/m*3 5 C 0 km/h
352 09-11-2009 22:16:40 5 C 6.46 g/m*3 5 C 0 km/h
353 09-11-2009 22:28:40 5 C 6.46 g/m*3 5 C 0 km/h
354 09-11-2009 22:40:40 5 C 6.46 g/m*3 5 C 0 km/h
355 09-11-2009 22:52:40 5 C 6.46 g/m*3 5 C 0 km/h
356 09-11-2009 23:04:40 5 C 6.46 g/m*3 5 C 0 km/h
357 09-11-2009 23:16:40 5 C 6.46 g/m*3 5 C 0 km/h
358 09-11-2009 23:28:40 5 C 6.46 g/m*3 5 C 0 km/h
359 09-11-2009 23:40:40 4.9 C 6.41 g/m*3 4.9 C 0 km/h
360 09-11-2009 23:52:41 5 C 6.46 g/m*3 5 C 0 km/h
361 10-11-2009 00:04:41 5 C 6.46 g/m*3 5 C 0 km/h
362 10-11-2009 00:16:41 5 C 6.46 g/m*3 5 C 0 km/h
363 10-11-2009 00:28:41 5 C 6.46 g/m*3 5 C 0 km/h
364 10-11-2009 00:40:41 5 C 6.46 g/m*3 5 C 0 km/h
365 10-11-2009 00:52:41 4.9 C 6.41 g/m*3 4.9 C 0 km/h
366 10-11-2009 01:04:41 4.9 C 6.41 g/m*3 4.9 C 0 km/h
367 10-11-2009 01:16:41 5 C 6.46 g/m*3 5 C 0 km/h
368 10-11-2009 01:28:41 5 C 6.46 g/m*3 5 C 0 km/h
369 10-11-2009 01:40:41 5 C 6.46 g/m*3 5 C 0 km/h
370 10-11-2009 01:52:41 5 C 6.46 g/m*3 5 C 0 km/h
371 10-11-2009 02:04:41 5 C 6.46 g/m*3 5 C 0 km/h
372 10-11-2009 02:16:41 5 C 6.46 g/m*3 5 C 0 km/h
373 10-11-2009 02:28:41 4.9 C 6.41 g/m*3 4.9 C 0 km/h
374 10-11-2009 02:40:41 4.9 C 6.41 g/m*3 4.9 C 0 km/h
375 10-11-2009 02:52:41 4.9 C 6.41 g/m*3 4.9 C 0 km/h
Sensor: Nr:Datum:Temp:Abs-Feuchte:Windchill:Wind:
Aussen-T/F 376 10-11-2009 03:04:41 4.8 C 6.37 g/m*3 4.8 C 0 km/h
377 10-11-2009 03:16:41 4.9 C 6.41 g/m*3 4.9 C 0 km/h
378 10-11-2009 03:28:41 4.9 C 6.41 g/m*3 4.9 C 0 km/h
379 10-11-2009 03:40:42 5 C 6.46 g/m*3 5 C 0 km/h
380 10-11-2009 03:52:42 5 C 6.46 g/m*3 5 C 0 km/h
381 10-11-2009 04:04:42 5 C 6.46 g/m*3 5 C 0 km/h
382 10-11-2009 04:16:42 5 C 6.46 g/m*3 5 C 0 km/h
383 10-11-2009 04:28:42 5.1 C 6.5 g/m*3 5.1 C 0 km/h
384 10-11-2009 04:40:42 5.1 C 6.5 g/m*3 5.1 C 0 km/h
385 10-11-2009 04:52:42 5.1 C 6.5 g/m*3 5.1 C 0 km/h
386 10-11-2009 05:04:42 5.1 C 6.5 g/m*3 5.1 C 0 km/h
387 10-11-2009 05:16:42 5.2 C 6.54 g/m*3 5.2 C 0 km/h
388 10-11-2009 05:28:42 5.2 C 6.54 g/m*3 5.2 C 0 km/h
389 10-11-2009 05:40:42 5.2 C 6.54 g/m*3 5.2 C 0 km/h
390 10-11-2009 05:52:42 5.3 C 6.58 g/m*3 5.3 C 0 km/h
391 10-11-2009 06:04:42 5.3 C 6.58 g/m*3 5.3 C 0 km/h
392 10-11-2009 06:16:42 5.4 C 6.63 g/m*3 5.4 C 0 km/h
393 10-11-2009 06:28:42 5.4 C 6.63 g/m*3 5.4 C 0 km/h
394 10-11-2009 06:40:42 5.4 C 6.63 g/m*3 5.4 C 0 km/h
395 10-11-2009 06:52:02 5.4 C 6.63 g/m*3 5.4 C 0 km/h
396 10-11-2009 07:04:03 5.4 C 6.63 g/m*3 5.4 C 0 km/h
397 10-11-2009 07:16:02 5.4 C 6.63 g/m*3 5.4 C 0 km/h
398 10-11-2009 07:28:02 5.4 C 6.63 g/m*3 5.4 C 0 km/h
399 10-11-2009 07:40:02 5.4 C 6.63 g/m*3 5.4 C 0 km/h
400 10-11-2009 07:52:01 5.3 C 6.58 g/m*3 5.3 C 0 km/h
Sensor: Nr:Datum:Temp:Abs-Feuchte:Windchill:Wind:
Aussen-T/F 401 10-11-2009 08:04:02 5.3 C 6.58 g/m*3 5.3 C 0 km/h
402 10-11-2009 08:16:01 5.3 C 6.58 g/m*3 5.3 C 0 km/h
403 10-11-2009 08:28:01 5.2 C 6.54 g/m*3 5.2 C 0 km/h
404 10-11-2009 08:40:02 5.2 C 6.54 g/m*3 5.2 C 0 km/h
405 10-11-2009 08:52:02 5.3 C 6.58 g/m*3 5.3 C 0 km/h
406 10-11-2009 09:04:02 5.4 C 6.63 g/m*3 5.4 C 0 km/h
407 10-11-2009 09:16:01 5.6 C 6.72 g/m*3 5.6 C 0 km/h
408 10-11-2009 09:28:01 5.7 C 6.76 g/m*3 5.7 C 0 km/h
409 10-11-2009 09:40:02 5.9 C 6.85 g/m*3 5.9 C 0 km/h
410 10-11-2009 09:52:02 5.9 C 6.85 g/m*3 5.9 C 0 km/h
411 10-11-2009 10:04:02 5.8 C 6.81 g/m*3 5.8 C 0 km/h
412 10-11-2009 10:16:02 5.7 C 6.76 g/m*3 5.7 C 0 km/h
413 10-11-2009 10:28:02 5.6 C 6.72 g/m*3 5.6 C 0 km/h
414 10-11-2009 10:40:01 5.8 C 6.81 g/m*3 5.8 C 0 km/h
415 10-11-2009 10:52:02 5.9 C 6.85 g/m*3 5.9 C 0 km/h
416 10-11-2009 11:04:01 6 C 6.9 g/m*3 6 C 0 km/h
417 10-11-2009 11:16:01 6.3 C 7.03 g/m*3 6.3 C 0 km/h
418 10-11-2009 11:28:01 6 C 6.9 g/m*3 6 C 0 km/h
419 10-11-2009 11:40:02 6.2 C 6.99 g/m*3 6.2 C 0 km/h
420 10-11-2009 11:52:02 6.4 C 7.08 g/m*3 6.4 C 0 km/h
421 10-11-2009 12:04:01 6.4 C 7.08 g/m*3 6.4 C 0 km/h
422 10-11-2009 12:16:02 6.3 C 7.03 g/m*3 6.3 C 0 km/h
423 10-11-2009 12:28:02 6.3 C 7.03 g/m*3 6.3 C 0 km/h
424 10-11-2009 12:40:02 6.3 C 7.03 g/m*3 6.3 C 0 km/h
425 10-11-2009 12:52:01 6.3 C 7.03 g/m*3 6.3 C 0 km/h
Sensor: Nr:Datum:Temp:Abs-Feuchte:Windchill:Wind:
Aussen-T/F 426 10-11-2009 13:04:02 6.6 C 7.17 g/m*3 6.6 C 0 km/h
427 10-11-2009 13:16:01 6.6 C 7.17 g/m*3 6.6 C 0 km/h
428 10-11-2009 13:28:01 7 C 7.28 g/m*3 7 C 0 km/h
429 10-11-2009 13:40:02 7.5 C 7.44 g/m*3 7.5 C 0 km/h
430 10-11-2009 13:52:02 7.5 C 7.2 g/m*3 7.5 C 0 km/h
431 10-11-2009 14:04:02 7.8 C 7.26 g/m*3 7.8 C 0 km/h
432 10-11-2009 14:16:01 8 C 7.19 g/m*3 8 C 0 km/h
433 10-11-2009 14:28:01 7.8 C 6.94 g/m*3 7.8 C 0 km/h
434 10-11-2009 14:40:02 7.7 C 6.89 g/m*3 7.7 C 0 km/h
435 10-11-2009 14:52:02 7.6 C 6.93 g/m*3 7.6 C 0 km/h
436 10-11-2009 15:04:02 7.6 C 7.01 g/m*3 7.6 C 0 km/h
437 10-11-2009 15:16:01 7.4 C 7 g/m*3 7.4 C 0 km/h
438 10-11-2009 15:28:01 7.1 C 6.86 g/m*3 7.1 C 0 km/h
439 10-11-2009 15:40:02 6.9 C 6.93 g/m*3 6.9 C 0 km/h
440 10-11-2009 15:52:02 6.8 C 6.88 g/m*3 6.8 C 0 km/h
441 10-11-2009 16:04:02 6.8 C 6.96 g/m*3 6.8 C 0 km/h
442 10-11-2009 16:16:01 6.7 C 6.99 g/m*3 6.7 C 0 km/h
443 10-11-2009 16:28:01 6.7 C 6.99 g/m*3 6.7 C 0 km/h
444 10-11-2009 16:40:02 6.6 C 6.95 g/m*3 6.6 C 0 km/h
445 10-11-2009 16:52:02 6.5 C 6.97 g/m*3 6.5 C 0 km/h
446 10-11-2009 17:04:02 6.5 C 6.97 g/m*3 6.5 C 0 km/h
447 10-11-2009 17:16:02 6.5 C 6.97 g/m*3 6.5 C 0 km/h
448 10-11-2009 17:28:02 6.5 C 6.97 g/m*3 6.5 C 0 km/h
449 10-11-2009 17:40:02 6.5 C 6.97 g/m*3 6.5 C 0 km/h
450 10-11-2009 17:52:02 6.5 C 6.97 g/m*3 6.5 C 0 km/h
Sensor: Nr:Datum:Temp:Abs-Feuchte:Windchill:Wind:
Aussen-T/F 451 10-11-2009 18:04:01 6.5 C 6.97 g/m*3 6.5 C 0 km/h
452 10-11-2009 18:16:02 6.5 C 6.97 g/m*3 6.5 C 0 km/h
453 10-11-2009 18:28:02 6.6 C 6.95 g/m*3 6.6 C 0 km/h
454 10-11-2009 18:40:01 6.5 C 6.9 g/m*3 6.5 C 0 km/h
455 10-11-2009 18:52:03 6.6 C 6.87 g/m*3 6.6 C 0 km/h
456 10-11-2009 19:04:02 6.6 C 6.87 g/m*3 6.6 C 0 km/h
457 10-11-2009 19:16:02 6.6 C 6.87 g/m*3 6.6 C 0 km/h
458 10-11-2009 19:28:02 6.7 C 6.91 g/m*3 6.7 C 0 km/h
459 10-11-2009 19:40:02 6.7 C 6.91 g/m*3 6.7 C 0 km/h
460 10-11-2009 19:52:02 6.7 C 6.84 g/m*3 6.7 C 0 km/h
461 10-11-2009 20:04:02 6.7 C 6.84 g/m*3 6.7 C 0 km/h
462 10-11-2009 20:16:02 6.7 C 6.84 g/m*3 6.7 C 0 km/h
463 10-11-2009 20:28:02 6.7 C 6.84 g/m*3 6.7 C 0 km/h
464 10-11-2009 20:40:01 6.7 C 6.84 g/m*3 6.7 C 0 km/h
465 10-11-2009 20:52:02 6.7 C 6.91 g/m*3 6.7 C 0 km/h
466 10-11-2009 21:04:02 6.6 C 6.87 g/m*3 6.6 C 0 km/h
467 10-11-2009 21:16:02 6.6 C 6.95 g/m*3 6.6 C 0 km/h
468 10-11-2009 21:28:02 6.6 C 6.95 g/m*3 6.6 C 0 km/h
469 10-11-2009 21:40:01 6.6 C 6.95 g/m*3 6.6 C 0 km/h
470 10-11-2009 21:53:02 6.6 C 6.95 g/m*3 6.6 C 0 km/h
471 10-11-2009 22:05:02 6.6 C 7.02 g/m*3 6.6 C 0 km/h
472 10-11-2009 22:17:02 6.5 C 6.97 g/m*3 6.5 C 0 km/h
473 10-11-2009 22:29:02 6.5 C 6.97 g/m*3 6.5 C 0 km/h
474 10-11-2009 22:41:02 6.5 C 7.05 g/m*3 6.5 C 0 km/h
475 10-11-2009 22:53:02 6.5 C 7.05 g/m*3 6.5 C 0 km/h
Sensor: Nr:Datum:Temp:Abs-Feuchte:Windchill:Wind:
Aussen-T/F 476 10-11-2009 23:05:02 6.5 C 7.05 g/m*3 6.5 C 0 km/h
477 10-11-2009 23:17:02 6.5 C 7.05 g/m*3 6.5 C 0 km/h
478 10-11-2009 23:29:02 6.5 C 7.05 g/m*3 6.5 C 0 km/h
479 10-11-2009 23:41:02 6.5 C 7.12 g/m*3 6.5 C 0 km/h
480 10-11-2009 23:53:02 6.5 C 7.12 g/m*3 6.5 C 0 km/h
481 11-11-2009 00:05:02 6.5 C 7.12 g/m*3 6.5 C 0 km/h
482 11-11-2009 00:17:02 6.5 C 7.12 g/m*3 6.5 C 0 km/h
483 11-11-2009 00:29:03 6.5 C 7.12 g/m*3 6.5 C 0 km/h
484 11-11-2009 00:41:03 6.4 C 7.08 g/m*3 6.4 C 0 km/h
485 11-11-2009 00:53:03 6.3 C 7.03 g/m*3 6.3 C 0 km/h
486 11-11-2009 01:05:03 6.3 C 7.03 g/m*3 6.3 C 0 km/h
487 11-11-2009 01:17:03 6.3 C 7.03 g/m*3 6.3 C 0 km/h
488 11-11-2009 01:29:03 6.2 C 6.99 g/m*3 6.2 C 0 km/h
489 11-11-2009 01:41:03 6.2 C 6.99 g/m*3 6.2 C 0 km/h
490 11-11-2009 01:53:03 6.2 C 6.99 g/m*3 6.2 C 0 km/h
491 11-11-2009 02:05:03 5.9 C 6.85 g/m*3 5.9 C 0 km/h
492 11-11-2009 02:17:03 5.4 C 6.63 g/m*3 5.4 C 0 km/h
493 11-11-2009 02:29:03 5.2 C 6.54 g/m*3 5.2 C 0 km/h
494 11-11-2009 02:41:03 5 C 6.46 g/m*3 5 C 0 km/h
495 11-11-2009 02:53:03 5.1 C 6.5 g/m*3 5.1 C 0 km/h
496 11-11-2009 03:05:03 5.2 C 6.54 g/m*3 5.2 C 0 km/h
497 11-11-2009 03:17:03 5.4 C 6.63 g/m*3 5.4 C 0 km/h
498 11-11-2009 03:29:03 5.4 C 6.63 g/m*3 5.4 C 0 km/h
499 11-11-2009 03:41:03 5.4 C 6.63 g/m*3 5.4 C 0 km/h
500 11-11-2009 03:53:03 5.4 C 6.63 g/m*3 5.4 C 0 km/h
Sensor: Nr:Datum:Temp:Abs-Feuchte:Windchill:Wind:
Aussen-T/F 501 11-11-2009 04:05:03 5.4 C 6.63 g/m*3 5.4 C 0 km/h
502 11-11-2009 04:17:04 5.4 C 6.63 g/m*3 5.4 C 0 km/h
503 11-11-2009 04:29:04 5.4 C 6.63 g/m*3 5.4 C 0 km/h
504 11-11-2009 04:41:04 5.4 C 6.63 g/m*3 5.4 C 0 km/h
505 11-11-2009 04:53:04 5.4 C 6.56 g/m*3 5.4 C 0 km/h
506 11-11-2009 05:05:04 5.4 C 6.49 g/m*3 5.4 C 0 km/h
507 11-11-2009 05:17:04 5.5 C 6.39 g/m*3 5.5 C 0 km/h
508 11-11-2009 05:29:04 5.5 C 6.32 g/m*3 5.5 C 0 km/h
509 11-11-2009 05:41:04 5.5 C 6.25 g/m*3 5.5 C 0 km/h
510 11-11-2009 05:53:04 5.6 C 6.15 g/m*3 5.6 C 0 km/h
511 11-11-2009 06:05:04 5.5 C 6.04 g/m*3 5.5 C 0 km/h
512 11-11-2009 06:17:04 5.6 C 6.01 g/m*3 5.6 C 0 km/h
513 11-11-2009 06:29:04 5.6 C 6.01 g/m*3 5.6 C 0 km/h
514 11-11-2009 06:41:04 5.7 C 6.05 g/m*3 5.7 C 0 km/h
515 11-11-2009 06:53:04 5.7 C 5.98 g/m*3 5.7 C 0 km/h
516 11-11-2009 07:05:02 5.7 C 5.98 g/m*3 5.7 C 0 km/h
517 11-11-2009 07:17:02 5.7 C 5.91 g/m*3 5.7 C 0 km/h
518 11-11-2009 07:29:02 5.7 C 5.91 g/m*3 5.7 C 0 km/h
519 11-11-2009 07:41:02 5.7 C 5.84 g/m*3 5.7 C 0 km/h
520 11-11-2009 07:53:02 5.7 C 5.84 g/m*3 5.7 C 0 km/h
521 11-11-2009 08:05:02 5.7 C 5.84 g/m*3 5.7 C 0 km/h
522 11-11-2009 08:17:02 5.7 C 5.84 g/m*3 5.7 C 0 km/h
523 11-11-2009 08:29:02 5.7 C 5.84 g/m*3 5.7 C 0 km/h
524 11-11-2009 08:41:02 5.7 C 5.84 g/m*3 5.7 C 0 km/h
525 11-11-2009 08:53:02 5.7 C 5.84 g/m*3 5.7 C 0 km/h
Sensor: Nr:Datum:Temp:Abs-Feuchte:Windchill:Wind:
Aussen-T/F 526 11-11-2009 09:05:02 5.8 C 5.87 g/m*3 5.8 C 0 km/h
527 11-11-2009 09:17:03 5.9 C 5.84 g/m*3 5.9 C 0 km/h
528 11-11-2009 09:29:03 6 C 5.81 g/m*3 6 C 0 km/h
529 11-11-2009 09:41:02 6 C 5.88 g/m*3 6 C 0 km/h
530 11-11-2009 09:53:02 6.1 C 5.92 g/m*3 6.1 C 0 km/h
531 11-11-2009 10:05:02 6.2 C 6.03 g/m*3 6.2 C 0 km/h
532 11-11-2009 10:17:03 6.3 C 6.07 g/m*3 6.3 C 0 km/h
533 11-11-2009 10:29:03 6.5 C 6.22 g/m*3 6.5 C 0 km/h
534 11-11-2009 10:41:02 6.5 C 6.22 g/m*3 6.5 C 0 km/h
535 11-11-2009 10:53:03 6.7 C 6.31 g/m*3 6.7 C 0 km/h
536 11-11-2009 11:05:02 6.6 C 6.27 g/m*3 6.6 C 0 km/h
537 11-11-2009 11:17:02 6.7 C 6.23 g/m*3 6.7 C 0 km/h
538 11-11-2009 11:29:02 7.1 C 6.32 g/m*3 7.1 C 0 km/h
539 11-11-2009 11:41:02 7.4 C 6.28 g/m*3 7.4 C 0 km/h
540 11-11-2009 11:53:02 7.5 C 6.16 g/m*3 7.5 C 0 km/h
541 11-11-2009 12:05:02 7.3 C 6 g/m*3 7.3 C 0 km/h
542 11-11-2009 12:17:02 7.3 C 6.16 g/m*3 7.3 C 0 km/h
543 11-11-2009 12:29:03 7.2 C 6.12 g/m*3 7.2 C 0 km/h
544 11-11-2009 12:41:02 7.3 C 6.16 g/m*3 7.3 C 0 km/h
545 11-11-2009 12:53:02 7.2 C 6.12 g/m*3 7.2 C 0 km/h
546 11-11-2009 13:05:01 7.4 C 6.28 g/m*3 7.4 C 0 km/h
547 11-11-2009 13:17:02 7.3 C 6.24 g/m*3 7.3 C 0 km/h
548 11-11-2009 13:29:02 7.5 C 6.24 g/m*3 7.5 C 0 km/h
549 11-11-2009 13:41:01 7.6 C 6.28 g/m*3 7.6 C 0 km/h
550 11-11-2009 13:53:02 7.6 C 6.2 g/m*3 7.6 C 0 km/h
Sensor: Nr:Datum:Temp:Abs-Feuchte:Windchill:Wind:
Aussen-T/F 551 11-11-2009 14:05:01 7.8 C 6.28 g/m*3 7.8 C 0 km/h
552 11-11-2009 14:17:01 7.7 C 6.16 g/m*3 7.7 C 0 km/h
553 11-11-2009 14:29:01 7.7 C 6.16 g/m*3 7.7 C 0 km/h
554 11-11-2009 14:41:02 7.7 C 6.16 g/m*3 7.7 C 0 km/h
555 11-11-2009 14:53:02 7.8 C 6.2 g/m*3 7.8 C 0 km/h
556 11-11-2009 15:05:02 7.7 C 6.16 g/m*3 7.7 C 0 km/h
557 11-11-2009 15:17:02 7.7 C 6.16 g/m*3 7.7 C 0 km/h
558 11-11-2009 15:29:02 7.6 C 6.2 g/m*3 7.6 C 0 km/h
559 11-11-2009 15:41:02 7.6 C 6.2 g/m*3 7.6 C 0 km/h
560 11-11-2009 15:53:01 7.7 C 6.24 g/m*3 7.7 C 0 km/h
561 11-11-2009 16:05:02 7.4 C 6.12 g/m*3 7.4 C 0 km/h
562 11-11-2009 16:17:01 7.1 C 6.08 g/m*3 7.1 C 0 km/h
563 11-11-2009 16:29:01 6.9 C 6.16 g/m*3 6.9 C 0 km/h
564 11-11-2009 16:41:02 6.8 C 6.19 g/m*3 6.8 C 0 km/h
565 11-11-2009 16:53:02 6.7 C 6.15 g/m*3 6.7 C 0 km/h
566 11-11-2009 17:05:02 6.7 C 6.23 g/m*3 6.7 C 0 km/h
567 11-11-2009 17:17:01 6.5 C 6.15 g/m*3 6.5 C 0 km/h
568 11-11-2009 17:29:01 6.5 C 6.15 g/m*3 6.5 C 0 km/h
569 11-11-2009 17:41:02 6.3 C 6.07 g/m*3 6.3 C 0 km/h
570 11-11-2009 17:53:02 6.4 C 6.11 g/m*3 6.4 C 0 km/h
571 11-11-2009 18:05:02 6.4 C 6.11 g/m*3 6.4 C 0 km/h
572 11-11-2009 18:17:01 6.6 C 6.19 g/m*3 6.6 C 0 km/h
573 11-11-2009 18:29:01 6.6 C 6.11 g/m*3 6.6 C 0 km/h
574 11-11-2009 18:41:02 6.6 C 6.11 g/m*3 6.6 C 0 km/h
575 11-11-2009 18:53:02 6.6 C 6.11 g/m*3 6.6 C 0 km/h
Sensor: Nr:Datum:Temp:Abs-Feuchte:Windchill:Wind:
Aussen-T/F 576 11-11-2009 19:05:02 6.6 C 6.04 g/m*3 6.6 C 0 km/h
577 11-11-2009 19:17:02 6.6 C 6.11 g/m*3 6.6 C 0 km/h
578 11-11-2009 19:29:02 6.6 C 6.11 g/m*3 6.6 C 0 km/h
579 11-11-2009 19:41:02 6.6 C 6.11 g/m*3 6.6 C 0 km/h
580 11-11-2009 19:53:02 6.4 C 6.04 g/m*3 6.4 C 0 km/h
581 11-11-2009 20:05:02 6.4 C 5.96 g/m*3 6.4 C 0 km/h
582 11-11-2009 20:17:02 6.4 C 5.89 g/m*3 6.4 C 0 km/h
583 11-11-2009 20:29:02 6.4 C 5.89 g/m*3 6.4 C 0 km/h
584 11-11-2009 20:41:02 6.4 C 5.89 g/m*3 6.4 C 0 km/h
585 11-11-2009 20:53:02 6.3 C 5.85 g/m*3 6.3 C 0 km/h
586 11-11-2009 21:05:02 6.3 C 5.77 g/m*3 6.3 C 0 km/h
587 11-11-2009 21:17:02 6.3 C 5.77 g/m*3 6.3 C 0 km/h
588 11-11-2009 21:29:02 6.3 C 5.77 g/m*3 6.3 C 0 km/h
589 11-11-2009 21:41:02 6.3 C 5.7 g/m*3 6.3 C 0 km/h
590 11-11-2009 21:53:01 6.2 C 5.66 g/m*3 6.2 C 0 km/h
591 11-11-2009 22:05:01 6.2 C 5.66 g/m*3 6.2 C 0 km/h
592 11-11-2009 22:18:03 6.2 C 5.66 g/m*3 6.2 C 0 km/h
593 11-11-2009 22:30:03 6 C 5.66 g/m*3 6 C 0 km/h
594 11-11-2009 22:42:03 5.7 C 5.62 g/m*3 5.7 C 0 km/h
595 11-11-2009 22:54:03 5.2 C 5.44 g/m*3 5.2 C 0 km/h
596 11-11-2009 23:06:03 4.8 C 5.5 g/m*3 4.8 C 0 km/h
597 11-11-2009 23:18:03 4.4 C 5.42 g/m*3 4.4 C 0 km/h
598 11-11-2009 23:30:03 4 C 5.34 g/m*3 4 C 0 km/h
599 11-11-2009 23:42:03 3.7 C 5.3 g/m*3 3.7 C 0 km/h
600 11-11-2009 23:54:03 3.5 C 5.29 g/m*3 3.5 C 0 km/h
Sensor: Nr:Datum:Temp:Abs-Feuchte:Windchill:Wind:
Aussen-T/F 601 12-11-2009 00:06:03 3.3 C 5.28 g/m*3 3.3 C 0 km/h
602 12-11-2009 00:18:03 3.1 C 5.21 g/m*3 3.1 C 0 km/h
603 12-11-2009 00:30:03 2.8 C 5.16 g/m*3 2.8 C 0 km/h
604 12-11-2009 00:42:03 2.6 C 5.15 g/m*3 2.6 C 0 km/h
605 12-11-2009 00:54:03 2.4 C 5.08 g/m*3 2.4 C 0 km/h
606 12-11-2009 01:06:03 2.1 C 4.98 g/m*3 2.1 C 0 km/h
607 12-11-2009 01:18:03 2 C 4.95 g/m*3 2 C 0 km/h
608 12-11-2009 01:30:03 1.8 C 4.93 g/m*3 1.8 C 0 km/h
609 12-11-2009 01:42:03 1.7 C 4.9 g/m*3 1.7 C 0 km/h
610 12-11-2009 01:54:03 1.7 C 4.9 g/m*3 1.7 C 0 km/h
611 12-11-2009 02:06:04 1.4 C 4.85 g/m*3 1.4 C 0 km/h
612 12-11-2009 02:18:04 1.3 C 4.82 g/m*3 1.3 C 0 km/h
613 12-11-2009 02:30:04 1.2 C 4.79 g/m*3 1.2 C 0 km/h
614 12-11-2009 02:42:04 1.2 C 4.79 g/m*3 1.2 C 0 km/h
615 12-11-2009 02:54:04 1.1 C 4.76 g/m*3 1.1 C 0 km/h
616 12-11-2009 03:06:04 1 C 4.72 g/m*3 1 C 0 km/h
617 12-11-2009 03:18:04 0.9 C 4.74 g/m*3 0.9 C 0 km/h
618 12-11-2009 03:30:04 0.8 C 4.71 g/m*3 0.8 C 0 km/h
619 12-11-2009 03:42:04 0.8 C 4.71 g/m*3 0.8 C 0 km/h
620 12-11-2009 03:54:04 1 C 4.78 g/m*3 1 C 0 km/h
621 12-11-2009 04:06:04 0.8 C 4.76 g/m*3 0.8 C 0 km/h
622 12-11-2009 04:18:04 0.6 C 4.7 g/m*3 0.6 C 0 km/h
623 12-11-2009 04:30:04 0.5 C 4.66 g/m*3 0.5 C 0 km/h
624 12-11-2009 04:42:04 0.4 C 4.63 g/m*3 0.4 C 0 km/h
625 12-11-2009 04:54:04 0.3 C 4.6 g/m*3 0.3 C 0 km/h
Sensor: Nr:Datum:Temp:Abs-Feuchte:Windchill:Wind:
Aussen-T/F 626 12-11-2009 05:06:04 0.2 C 4.57 g/m*3 0.2 C 0 km/h
627 12-11-2009 05:18:04 0.2 C 4.62 g/m*3 0.2 C 0 km/h
628 12-11-2009 05:30:04 0.4 C 4.68 g/m*3 0.4 C 0 km/h
629 12-11-2009 05:42:04 0.6 C 4.75 g/m*3 0.6 C 0 km/h
630 12-11-2009 05:54:05 0.7 C 4.83 g/m*3 0.7 C 0 km/h
631 12-11-2009 06:06:05 0.9 C 4.9 g/m*3 0.9 C 0 km/h
632 12-11-2009 06:18:03 1 C 4.93 g/m*3 1 C 0 km/h
633 12-11-2009 06:30:03 1.1 C 4.96 g/m*3 1.1 C 0 km/h
634 12-11-2009 06:42:03 1.1 C 4.96 g/m*3 1.1 C 0 km/h
635 12-11-2009 06:54:01 1.2 C 5 g/m*3 1.2 C 0 km/h
636 12-11-2009 07:06:02 1.3 C 5.03 g/m*3 1.3 C 0 km/h
637 12-11-2009 07:18:01 1.4 C 5.07 g/m*3 1.4 C 0 km/h
638 12-11-2009 07:30:01 1.4 C 5.07 g/m*3 1.4 C 0 km/h
639 12-11-2009 07:42:01 1.4 C 5.07 g/m*3 1.4 C 0 km/h
640 12-11-2009 07:54:01 1.7 C 5.17 g/m*3 1.7 C 0 km/h
641 12-11-2009 08:06:02 1.7 C 5.17 g/m*3 1.7 C 0 km/h
642 12-11-2009 08:18:01 1.9 C 5.24 g/m*3 1.9 C 0 km/h
643 12-11-2009 08:30:01 2.2 C 5.35 g/m*3 2.2 C 0 km/h
644 12-11-2009 08:42:02 2.3 C 5.39 g/m*3 2.3 C 0 km/h
645 12-11-2009 08:54:01 2.7 C 5.54 g/m*3 2.7 C 0 km/h
646 12-11-2009 09:06:02 3.1 C 5.69 g/m*3 3.1 C 0 km/h
647 12-11-2009 09:18:01 3.3 C 5.76 g/m*3 3.3 C 0 km/h
648 12-11-2009 09:30:01 3.5 C 5.84 g/m*3 3.5 C 0 km/h
649 12-11-2009 09:42:02 3.7 C 5.92 g/m*3 3.7 C 0 km/h
650 12-11-2009 09:54:01 3.7 C 5.92 g/m*3 3.7 C 0 km/h
Sensor: Nr:Datum:Temp:Abs-Feuchte:Windchill:Wind:
Aussen-T/F 651 12-11-2009 10:06:01 3.5 C 5.84 g/m*3 3.5 C 0 km/h
652 12-11-2009 10:18:02 3.5 C 5.84 g/m*3 3.5 C 0 km/h
653 12-11-2009 10:30:02 3.5 C 5.84 g/m*3 3.5 C 0 km/h
654 12-11-2009 10:42:01 3.7 C 5.92 g/m*3 3.7 C 0 km/h
655 12-11-2009 10:54:02 4 C 6.04 g/m*3 4 C 0 km/h
656 12-11-2009 11:06:02 4.2 C 6.12 g/m*3 4.2 C 0 km/h
657 12-11-2009 11:18:02 4.4 C 6.2 g/m*3 4.4 C 0 km/h
658 12-11-2009 11:30:02 4.6 C 6.29 g/m*3 4.6 C 0 km/h
659 12-11-2009 11:42:02 4.8 C 6.37 g/m*3 4.8 C 0 km/h
660 12-11-2009 11:54:02 5.1 C 6.5 g/m*3 5.1 C 0 km/h
661 12-11-2009 12:06:02 5.3 C 6.58 g/m*3 5.3 C 0 km/h
662 12-11-2009 12:18:01 5.5 C 6.6 g/m*3 5.5 C 0 km/h
663 12-11-2009 12:30:01 5.6 C 6.65 g/m*3 5.6 C 0 km/h
664 12-11-2009 12:42:02 5.7 C 6.62 g/m*3 5.7 C 0 km/h
665 12-11-2009 12:54:02 5.6 C 6.5 g/m*3 5.6 C 0 km/h
666 12-11-2009 13:06:02 5.7 C 6.55 g/m*3 5.7 C 0 km/h
667 12-11-2009 13:18:02 5.8 C 6.59 g/m*3 5.8 C 0 km/h
668 12-11-2009 13:30:02 5.9 C 6.56 g/m*3 5.9 C 0 km/h
669 12-11-2009 13:42:02 6.3 C 6.66 g/m*3 6.3 C 0 km/h
670 12-11-2009 13:54:02 6.6 C 6.72 g/m*3 6.6 C 0 km/h
671 12-11-2009 14:06:02 6.6 C 6.64 g/m*3 6.6 C 0 km/h
672 12-11-2009 14:18:02 6.8 C 6.73 g/m*3 6.8 C 0 km/h
673 12-11-2009 14:30:02 7 C 6.74 g/m*3 7 C 0 km/h
674 12-11-2009 14:42:02 7.3 C 6.79 g/m*3 7.3 C 0 km/h
675 12-11-2009 14:54:02 7.5 C 6.8 g/m*3 7.5 C 0 km/h
Sensor: Nr:Datum:Temp:Abs-Feuchte:Windchill:Wind:
Aussen-T/F 676 12-11-2009 15:06:02 7.4 C 6.76 g/m*3 7.4 C 0 km/h
677 12-11-2009 15:18:02 7.3 C 6.72 g/m*3 7.3 C 0 km/h
678 12-11-2009 15:30:02 7.3 C 6.79 g/m*3 7.3 C 0 km/h
679 12-11-2009 15:42:02 7.4 C 6.84 g/m*3 7.4 C 0 km/h
680 12-11-2009 15:54:02 7.4 C 6.92 g/m*3 7.4 C 0 km/h
681 12-11-2009 16:06:02 7.5 C 6.96 g/m*3 7.5 C 0 km/h
682 12-11-2009 16:18:03 7.5 C 6.96 g/m*3 7.5 C 0 km/h
683 12-11-2009 16:30:03 7.5 C 6.96 g/m*3 7.5 C 0 km/h
684 12-11-2009 16:42:02 7.5 C 6.96 g/m*3 7.5 C 0 km/h
685 12-11-2009 16:54:02 7.6 C 7.01 g/m*3 7.6 C 0 km/h
686 12-11-2009 17:06:02 7.7 C 7.05 g/m*3 7.7 C 0 km/h
687 12-11-2009 17:18:02 7.7 C 7.14 g/m*3 7.7 C 0 km/h
688 12-11-2009 17:30:02 7.7 C 7.14 g/m*3 7.7 C 0 km/h
689 12-11-2009 17:42:02 7.8 C 7.18 g/m*3 7.8 C 0 km/h
690 12-11-2009 17:54:02 7.9 C 7.23 g/m*3 7.9 C 0 km/h
691 12-11-2009 18:06:02 8 C 7.19 g/m*3 8 C 0 km/h
692 12-11-2009 18:18:02 8.2 C 7.29 g/m*3 8.2 C 0 km/h
693 12-11-2009 18:30:02 8.1 C 7.16 g/m*3 8.1 C 0 km/h
694 12-11-2009 18:42:02 8 C 7.11 g/m*3 8 C 0 km/h
695 12-11-2009 18:54:02 7.9 C 7.23 g/m*3 7.9 C 0 km/h
696 12-11-2009 19:06:02 7.9 C 7.23 g/m*3 7.9 C 0 km/h
697 12-11-2009 19:18:02 7.9 C 7.31 g/m*3 7.9 C 0 km/h
698 12-11-2009 19:30:03 7.9 C 7.31 g/m*3 7.9 C 0 km/h
699 12-11-2009 19:42:02 7.8 C 7.26 g/m*3 7.8 C 0 km/h
700 12-11-2009 19:54:02 7.8 C 7.26 g/m*3 7.8 C 0 km/h
Sensor: Nr:Datum:Temp:Abs-Feuchte:Windchill:Wind:
Aussen-T/F 701 12-11-2009 20:06:01 7.8 C 7.35 g/m*3 7.8 C 0 km/h
702 12-11-2009 20:18:02 7.8 C 7.35 g/m*3 7.8 C 0 km/h
703 12-11-2009 20:30:02 7.8 C 7.35 g/m*3 7.8 C 0 km/h
704 12-11-2009 20:42:02 7.6 C 7.33 g/m*3 7.6 C 0 km/h
705 12-11-2009 20:54:01 7.6 C 7.33 g/m*3 7.6 C 0 km/h
706 12-11-2009 21:06:02 7.5 C 7.28 g/m*3 7.5 C 0 km/h
707 12-11-2009 21:18:01 7.3 C 7.27 g/m*3 7.3 C 0 km/h
708 12-11-2009 21:30:01 7.1 C 7.18 g/m*3 7.1 C 0 km/h
709 12-11-2009 21:42:01 7 C 7.13 g/m*3 7 C 0 km/h
710 12-11-2009 21:54:01 7.1 C 7.25 g/m*3 7.1 C 0 km/h
711 12-11-2009 22:07:01 7.4 C 7.4 g/m*3 7.4 C 0 km/h
712 12-11-2009 22:19:01 7.5 C 7.52 g/m*3 7.5 C 0 km/h
713 12-11-2009 22:31:01 7.2 C 7.3 g/m*3 7.2 C 0 km/h
714 12-11-2009 22:43:01 7.3 C 7.35 g/m*3 7.3 C 0 km/h
715 12-11-2009 22:55:01 7.6 C 7.49 g/m*3 7.6 C 0 km/h
716 12-11-2009 23:07:01 8.1 C 7.66 g/m*3 8.1 C 0 km/h
717 12-11-2009 23:19:01 7.9 C 7.47 g/m*3 7.9 C 0 km/h
718 12-11-2009 23:31:02 8 C 7.36 g/m*3 8 C 0 km/h
719 12-11-2009 23:43:02 8.3 C 7.5 g/m*3 8.3 C 0 km/h
720 12-11-2009 23:55:02 8.6 C 7.48 g/m*3 8.6 C 0 km/h
721 13-11-2009 00:07:02 8.5 C 7.26 g/m*3 8.5 C 0 km/h
722 13-11-2009 00:19:02 8.3 C 7.16 g/m*3 8.3 C 0 km/h
723 13-11-2009 00:31:02 8.1 C 7.16 g/m*3 8.1 C 0 km/h
724 13-11-2009 00:43:02 7.5 C 6.96 g/m*3 7.5 C 0 km/h
725 13-11-2009 00:55:02 7.5 C 7.12 g/m*3 7.5 C 0 km/h
Sensor: Nr:Datum:Temp:Abs-Feuchte:Windchill:Wind:
Aussen-T/F 726 13-11-2009 01:07:02 7.3 C 7.03 g/m*3 7.3 C 0 km/h
727 13-11-2009 01:19:02 7.1 C 7.02 g/m*3 7.1 C 0 km/h
728 13-11-2009 01:31:02 7.3 C 7.19 g/m*3 7.3 C 0 km/h
729 13-11-2009 01:43:02 7.5 C 7.36 g/m*3 7.5 C 0 km/h
730 13-11-2009 01:55:02 7.5 C 7.36 g/m*3 7.5 C 0 km/h
731 13-11-2009 02:07:02 7.5 C 7.36 g/m*3 7.5 C 0 km/h
732 13-11-2009 02:19:02 7.7 C 7.54 g/m*3 7.7 C 0 km/h
733 13-11-2009 02:31:02 7.6 C 7.41 g/m*3 7.6 C 0 km/h
734 13-11-2009 02:43:02 7.5 C 7.36 g/m*3 7.5 C 0 km/h
735 13-11-2009 02:55:02 7.9 C 7.64 g/m*3 7.9 C 0 km/h
736 13-11-2009 03:07:02 8.1 C 7.66 g/m*3 8.1 C 0 km/h
737 13-11-2009 03:19:03 8.2 C 7.79 g/m*3 8.2 C 0 km/h
738 13-11-2009 03:31:03 8.5 C 7.94 g/m*3 8.5 C 0 km/h
739 13-11-2009 03:43:03 8.7 C 8.04 g/m*3 8.7 C 0 km/h
740 13-11-2009 03:55:03 8.7 C 8.04 g/m*3 8.7 C 0 km/h
741 13-11-2009 04:07:03 8.6 C 7.99 g/m*3 8.6 C 0 km/h
742 13-11-2009 04:19:03 8.6 C 7.99 g/m*3 8.6 C 0 km/h
743 13-11-2009 04:31:03 8.5 C 7.94 g/m*3 8.5 C 0 km/h
744 13-11-2009 04:43:03 8.7 C 8.13 g/m*3 8.7 C 0 km/h
745 13-11-2009 04:55:03 8.7 C 8.13 g/m*3 8.7 C 0 km/h
746 13-11-2009 05:07:03 8.6 C 8.08 g/m*3 8.6 C 0 km/h
747 13-11-2009 05:19:03 8.7 C 8.13 g/m*3 8.7 C 0 km/h
748 13-11-2009 05:31:03 9 C 8.29 g/m*3 9 C 0 km/h
749 13-11-2009 05:43:03 9.7 C 8.76 g/m*3 9.7 C 0 km/h
750 13-11-2009 05:55:03 9.9 C 8.87 g/m*3 9.9 C 0 km/h
Sensor: Nr:Datum:Temp:Abs-Feuchte:Windchill:Wind:
Aussen-T/F 751 13-11-2009 06:07:03 10.2 C 8.95 g/m*3 10.2 C 0 km/h
752 13-11-2009 06:19:03 10.4 C 9.06 g/m*3 10.4 C 0 km/h
753 13-11-2009 06:31:03 10 C 8.74 g/m*3 10 C 0 km/h
754 13-11-2009 06:43:03 10 C 8.74 g/m*3 10 C 0 km/h
755 13-11-2009 06:55:03 10 C 8.74 g/m*3 10 C 0 km/h
756 13-11-2009 07:07:01 9.8 C 8.72 g/m*3 9.8 C 0 km/h
757 13-11-2009 07:19:02 9.7 C 8.67 g/m*3 9.7 C 0 km/h
758 13-11-2009 07:31:02 10.1 C 8.89 g/m*3 10.1 C 0 km/h
759 13-11-2009 07:43:02 10.3 C 9 g/m*3 10.3 C 0 km/h
760 13-11-2009 07:55:02 10.6 C 9.17 g/m*3 10.6 C 0 km/h
761 13-11-2009 08:07:03 10.6 C 9.08 g/m*3 10.6 C 0 km/h
762 13-11-2009 08:19:02 10.7 C 9.13 g/m*3 10.7 C 0 km/h
763 13-11-2009 08:31:03 11 C 9.11 g/m*3 11 C 0 km/h
764 13-11-2009 08:43:03 11.2 C 9.02 g/m*3 11.2 C 0 km/h
765 13-11-2009 08:55:02 11.4 C 8.93 g/m*3 11.4 C 0 km/h
766 13-11-2009 09:07:03 11.5 C 8.78 g/m*3 11.5 C 0 km/h
767 13-11-2009 09:19:02 11.7 C 8.79 g/m*3 11.7 C 0 km/h
768 13-11-2009 09:31:03 11.8 C 8.74 g/m*3 11.8 C 0 km/h
769 13-11-2009 09:43:04 12 C 8.74 g/m*3 12 C 0 km/h
770 13-11-2009 09:55:02 11.9 C 8.79 g/m*3 11.9 C 0 km/h
771 13-11-2009 10:07:02 12.2 C 8.85 g/m*3 12.2 C 0 km/h
772 13-11-2009 10:19:02 12.9 C 8.9 g/m*3 12.9 C 0 km/h
773 13-11-2009 10:31:02 13.3 C 8.55 g/m*3 13.3 C 0 km/h
774 13-11-2009 10:43:02 13.5 C 8.54 g/m*3 13.5 C 0 km/h
775 13-11-2009 10:55:02 13.6 C 8.59 g/m*3 13.6 C 0 km/h
Sensor: Nr:Datum:Temp:Abs-Feuchte:Windchill:Wind:
Aussen-T/F 776 13-11-2009 11:07:02 13.6 C 8.47 g/m*3 13.6 C 0 km/h
777 13-11-2009 11:19:02 13.7 C 8.53 g/m*3 13.7 C 0 km/h
778 13-11-2009 11:31:02 13.8 C 8.46 g/m*3 13.8 C 0 km/h
779 13-11-2009 11:43:02 13.8 C 8.58 g/m*3 13.8 C 0 km/h
780 13-11-2009 11:55:02 13.8 C 8.58 g/m*3 13.8 C 0 km/h
781 13-11-2009 12:07:02 13.9 C 8.51 g/m*3 13.9 C 0 km/h
782 13-11-2009 12:19:02 14.1 C 8.25 g/m*3 14.1 C 0 km/h
783 13-11-2009 12:31:01 14.2 C 8.18 g/m*3 14.2 C 0 km/h
784 13-11-2009 12:43:01 14.2 C 8.06 g/m*3 14.2 C 0 km/h
785 13-11-2009 12:55:02 14.2 C 8.06 g/m*3 14.2 C 0 km/h
786 13-11-2009 13:07:01 14.3 C 7.99 g/m*3 14.3 C 0 km/h
787 13-11-2009 13:19:02 14.6 C 8.01 g/m*3 14.6 C 0 km/h
788 13-11-2009 13:31:02 14.9 C 8.03 g/m*3 14.9 C 0 km/h
789 13-11-2009 13:43:02 15.3 C 7.84 g/m*3 15.3 C 0 km/h
790 13-11-2009 13:55:02 16.3 C 7.91 g/m*3 16.3 C 0 km/h
791 13-11-2009 14:07:02 17.1 C 7.57 g/m*3 17.1 C 0 km/h
792 13-11-2009 14:19:02 17.4 C 7.26 g/m*3 17.4 C 0 km/h
793 13-11-2009 14:31:02 17.4 C 7.11 g/m*3 17.4 C 0 km/h
794 13-11-2009 14:43:02 17.5 C 6.86 g/m*3 17.5 C 0 km/h
795 13-11-2009 14:55:02 17.3 C 6.92 g/m*3 17.3 C 0 km/h
796 13-11-2009 15:07:02 17.3 C 7.22 g/m*3 17.3 C 0 km/h
797 13-11-2009 15:19:01 17.1 C 7.42 g/m*3 17.1 C 0 km/h
798 13-11-2009 15:31:02 16.6 C 7.35 g/m*3 16.6 C 0 km/h
799 13-11-2009 15:43:03 16.1 C 7.54 g/m*3 16.1 C 0 km/h
800 13-11-2009 15:55:02 15.6 C 7.58 g/m*3 15.6 C 0 km/h
Sensor: Nr:Datum:Temp:Abs-Feuchte:Windchill:Wind:
Aussen-T/F 801 13-11-2009 16:07:02 15.1 C 7.61 g/m*3 15.1 C 0 km/h
802 13-11-2009 16:19:02 14.7 C 7.55 g/m*3 14.7 C 0 km/h
803 13-11-2009 16:31:02 14.2 C 7.82 g/m*3 14.2 C 0 km/h
804 13-11-2009 16:43:02 13.6 C 8 g/m*3 13.6 C 0 km/h
805 13-11-2009 16:55:02 12.8 C 8.06 g/m*3 12.8 C 0 km/h
806 13-11-2009 17:07:02 12.5 C 8.14 g/m*3 12.5 C 0 km/h
807 13-11-2009 17:19:02 12.3 C 8.04 g/m*3 12.3 C 0 km/h
808 13-11-2009 17:31:02 12.1 C 8.04 g/m*3 12.1 C 0 km/h
809 13-11-2009 17:43:02 11.9 C 8.15 g/m*3 11.9 C 0 km/h
810 13-11-2009 17:55:02 11.6 C 8 g/m*3 11.6 C 0 km/h
811 13-11-2009 18:07:02 11.5 C 8.06 g/m*3 11.5 C 0 km/h
812 13-11-2009 18:19:03 11.2 C 8.01 g/m*3 11.2 C 0 km/h
813 13-11-2009 18:31:02 11.3 C 8.16 g/m*3 11.3 C 0 km/h
814 13-11-2009 18:43:02 11 C 8.01 g/m*3 11 C 0 km/h
815 13-11-2009 18:55:03 11 C 8.11 g/m*3 11 C 0 km/h
816 13-11-2009 19:07:02 11 C 8.21 g/m*3 11 C 0 km/h
817 13-11-2009 19:19:02 11.1 C 8.36 g/m*3 11.1 C 0 km/h
818 13-11-2009 19:31:02 10.8 C 8.2 g/m*3 10.8 C 0 km/h
819 13-11-2009 19:43:02 10.8 C 8.3 g/m*3 10.8 C 0 km/h
820 13-11-2009 19:55:02 10.5 C 8.15 g/m*3 10.5 C 0 km/h
821 13-11-2009 20:07:02 10.7 C 8.35 g/m*3 10.7 C 0 km/h
822 13-11-2009 20:19:02 10.5 C 8.24 g/m*3 10.5 C 0 km/h
823 13-11-2009 20:31:02 10.4 C 8.29 g/m*3 10.4 C 0 km/h
824 13-11-2009 20:43:02 10.3 C 8.24 g/m*3 10.3 C 0 km/h
825 13-11-2009 20:55:02 10.2 C 8.28 g/m*3 10.2 C 0 km/h
Sensor: Nr:Datum:Temp:Abs-Feuchte:Windchill:Wind:
Aussen-T/F 826 13-11-2009 21:07:02 10.4 C 8.48 g/m*3 10.4 C 0 km/h
827 13-11-2009 21:19:02 10.3 C 8.43 g/m*3 10.3 C 0 km/h
828 13-11-2009 21:31:02 10.3 C 8.43 g/m*3 10.3 C 0 km/h
829 13-11-2009 21:43:02 10.1 C 8.32 g/m*3 10.1 C 0 km/h
830 13-11-2009 21:55:01 10.2 C 8.47 g/m*3 10.2 C 0 km/h
831 13-11-2009 22:08:04 10.2 C 8.47 g/m*3 10.2 C 0 km/h
832 13-11-2009 22:20:04 10.1 C 8.42 g/m*3 10.1 C 0 km/h
833 13-11-2009 22:32:04 9.9 C 8.4 g/m*3 9.9 C 0 km/h
834 13-11-2009 22:44:04 9.7 C 8.3 g/m*3 9.7 C 0 km/h
835 13-11-2009 22:56:04 9.8 C 8.44 g/m*3 9.8 C 0 km/h
836 13-11-2009 23:08:04 9.7 C 8.39 g/m*3 9.7 C 0 km/h
837 13-11-2009 23:20:04 9.7 C 8.39 g/m*3 9.7 C 0 km/h
838 13-11-2009 23:32:04 9.7 C 8.48 g/m*3 9.7 C 0 km/h
839 13-11-2009 23:44:04 9.7 C 8.48 g/m*3 9.7 C 0 km/h
840 13-11-2009 23:56:04 9.7 C 8.48 g/m*3 9.7 C 0 km/h

Legende:
   Min
   Max


Maximal/Minimal-Werte vom 07.11.2009 - 13.11.2009

Sensor Min Max Avg
Temp
(Aussen-T/F)
0.2 °C
12-11-2009  05:06:04
17.5 °C
13-11-2009  14:43:02
7.06 °C
Abs-Feuchte
(Aussen-T/F)
4.57 g/m*3
12-11-2009  05:06:04
9.17 g/m*3
13-11-2009  07:55:02
6.52 g/m*3
Windchill
(Aussen-T/F)
0.2 C
12-11-2009  05:06:04
17.5 C
13-11-2009  14:43:02
7.06 C

Die Daten stammen von einer Davis Vantage Pro 2 Wetter-Station und werden unter Linux mit der Software wview2wettercgi und aufbereitet. Alle Angaben erfolgen ohne Gewähr für ihre Vollständigkeit oder Richtigkeit.
Kontakt: Rainer Krienke krienke@uni-koblenz.de . Meine Webseiten an der Uni Koblenz oder privat.
Version: $Revision: 0.78 $